createdAt,value
2019-05-26T00:01:36.073Z,3.75
2019-05-26T00:04:08.316Z,4.12
2019-05-26T00:06:39.874Z,3.83
2019-05-26T00:09:11.805Z,3.83
2019-05-26T00:11:43.400Z,3.98
2019-05-26T00:14:15.301Z,3.98
2019-05-26T00:16:47.293Z,3.70
2019-05-26T00:19:19.009Z,4.58
2019-05-26T00:22:23.309Z,4.00
2019-05-26T00:24:55.310Z,3.75
2019-05-26T00:27:28.301Z,3.83
2019-05-26T00:30:00.058Z,4.45
2019-05-26T00:32:31.718Z,4.87
2019-05-26T00:37:48.334Z,4.05
2019-05-26T00:40:08.374Z,4.00
2019-05-26T00:42:40.015Z,4.00
2019-05-26T00:45:12.306Z,3.90
2019-05-26T00:47:43.831Z,3.17
2019-05-26T00:50:15.760Z,4.33
2019-05-26T00:52:47.370Z,3.40
2019-05-26T00:55:19.067Z,4.65
2019-05-26T00:57:50.757Z,3.67
2019-05-26T01:00:40.755Z,4.30
2019-05-26T01:05:43.483Z,3.62
2019-05-26T01:08:15.302Z,3.45
2019-05-26T01:10:46.828Z,3.47
2019-05-26T01:13:18.631Z,3.67
2019-05-26T01:15:50.390Z,3.40
2019-05-26T01:18:22.315Z,3.12
2019-05-26T01:20:53.874Z,3.65
2019-05-26T01:23:25.511Z,4.45
2019-05-26T01:25:57.313Z,4.03
2019-05-26T01:28:28.889Z,4.80
2019-05-26T01:31:00.743Z,4.22
2019-05-26T01:36:03.299Z,4.85
2019-05-26T01:38:35.427Z,3.25
2019-05-26T01:41:07.070Z,3.45
2019-05-26T01:43:38.781Z,3.65
2019-05-26T01:48:41.391Z,4.00
2019-05-26T01:51:13.049Z,3.72
2019-05-26T01:53:44.770Z,3.72
2019-05-26T01:58:47.297Z,3.98
2019-05-26T02:01:18.854Z,3.60
2019-05-26T02:03:50.436Z,3.62
2019-05-26T02:06:22.558Z,4.55
2019-05-26T02:08:54.305Z,3.70
2019-05-26T02:11:26.301Z,3.60
2019-05-26T02:13:57.711Z,3.70
2019-05-26T02:19:00.304Z,3.52
2019-05-26T02:21:31.864Z,3.30
2019-05-26T02:24:03.733Z,3.83
2019-05-26T02:29:06.387Z,3.58
2019-05-26T02:31:38.401Z,3.37
2019-05-26T02:34:10.292Z,3.52
2019-05-26T02:36:41.840Z,3.52
2019-05-26T02:39:13.467Z,3.20
2019-05-26T02:41:45.611Z,3.83
2019-05-26T02:44:17.369Z,3.35
2019-05-26T02:46:49.018Z,3.60
2019-05-26T02:49:20.744Z,4.33
2019-05-26T02:54:23.308Z,3.42
2019-05-26T02:56:54.819Z,3.58
2019-05-26T02:59:26.820Z,3.17
2019-05-26T03:02:03.633Z,3.42
2019-05-26T03:04:32.308Z,3.30
2019-05-26T03:07:03.955Z,3.42
2019-05-26T03:09:36.343Z,3.10
2019-05-26T03:12:08.297Z,3.05
2019-05-26T03:14:39.863Z,3.47
2019-05-26T03:17:11.752Z,3.83
2019-05-26T03:22:14.372Z,3.45
2019-05-26T03:24:46.070Z,4.33
2019-05-26T03:27:17.774Z,3.50
2019-05-26T03:32:20.376Z,3.10
2019-05-26T03:34:52.067Z,3.67
2019-05-26T03:37:23.842Z,3.72
2019-05-26T03:39:55.395Z,3.45
2019-05-26T03:42:27.023Z,3.20
2019-05-26T03:44:58.775Z,3.12
2019-05-26T03:50:01.497Z,3.72
2019-05-26T03:52:33.301Z,3.00
2019-05-26T03:55:05.299Z,3.58
2019-05-26T03:57:37.265Z,3.90
2019-05-26T04:00:08.946Z,3.40
2019-05-26T04:02:40.774Z,3.70
2019-05-26T04:07:43.304Z,3.60
2019-05-26T04:10:15.752Z,3.40
2019-05-26T04:15:18.696Z,3.58
2019-05-26T04:20:21.024Z,3.20
2019-05-26T04:22:52.786Z,3.95
2019-05-26T04:25:24.354Z,3.37
2019-05-26T04:27:56.023Z,3.33
2019-05-26T04:30:27.889Z,3.30
2019-05-26T04:32:59.783Z,4.12
2019-05-26T04:38:02.261Z,3.40
2019-05-26T04:40:33.826Z,4.83
2019-05-26T04:43:05.432Z,3.30
2019-05-26T04:45:37.379Z,3.25
2019-05-26T04:48:09.062Z,3.10
2019-05-26T04:50:40.742Z,5.80
2019-05-26T04:55:43.307Z,3.12
2019-05-26T04:58:14.877Z,3.10
2019-05-26T05:00:46.785Z,3.20
2019-05-26T05:03:18.408Z,3.70
2019-05-26T05:05:50.402Z,3.02
2019-05-26T05:08:22.339Z,2.90
2019-05-26T05:10:54.010Z,2.45
2019-05-26T05:13:25.793Z,3.08
2019-05-26T05:15:57.577Z,2.92
2019-05-26T05:18:29.301Z,2.70
2019-05-26T05:21:00.833Z,3.08
2019-05-26T05:23:32.384Z,2.90
2019-05-26T05:26:04.044Z,3.33
2019-05-26T05:28:36.049Z,2.75
2019-05-26T05:31:07.741Z,3.30
2019-05-26T05:36:10.733Z,2.58
2019-05-26T05:43:00.307Z,2.70
2019-05-26T05:45:31.842Z,5.10
2019-05-26T05:48:03.836Z,3.62
2019-05-26T05:50:38.918Z,3.55
2019-05-26T05:53:09.057Z,5.40
2019-05-26T05:55:40.769Z,4.05
2019-05-26T06:00:45.449Z,3.00
2019-05-26T06:03:18.813Z,3.25
2019-05-26T06:05:50.400Z,3.52
2019-05-26T06:08:22.079Z,3.77
2019-05-26T06:10:53.746Z,4.05
2019-05-26T06:15:56.293Z,4.70
2019-05-26T06:18:27.854Z,2.70
2019-05-26T06:20:59.379Z,3.62
2019-05-26T06:23:36.854Z,2.92
2019-05-26T06:26:07.765Z,2.77
2019-05-26T06:31:11.038Z,3.77
2019-05-26T06:33:42.791Z,2.70
2019-05-26T06:38:45.611Z,3.98
2019-05-26T06:41:32.192Z,4.35
2019-05-26T06:43:51.304Z,2.98
2019-05-26T06:46:23.306Z,3.72
2019-05-26T06:48:54.893Z,2.98
2019-05-26T06:51:26.386Z,2.62
2019-05-26T06:53:58.430Z,3.65
2019-05-26T06:56:33.730Z,3.50
2019-05-26T07:01:36.337Z,2.92
2019-05-26T07:04:08.605Z,2.77
2019-05-26T07:06:39.669Z,3.83
2019-05-26T07:09:10.924Z,3.90
2019-05-26T07:11:55.483Z,3.02
2019-05-26T07:14:16.300Z,2.58
2019-05-26T07:16:47.874Z,2.30
2019-05-26T07:19:19.670Z,2.85
2019-05-26T07:24:22.016Z,2.47
2019-05-26T07:26:53.745Z,4.78
2019-05-26T07:31:55.927Z,2.70
2019-05-26T07:34:27.454Z,2.60
2019-05-26T07:36:59.710Z,2.70
2019-05-26T07:42:10.227Z,4.15
2019-05-26T07:44:36.371Z,3.33
2019-05-26T07:47:09.302Z,3.47
2019-05-26T07:49:40.870Z,3.37
2019-05-26T07:52:12.426Z,2.70
2019-05-26T07:54:44.058Z,3.05
2019-05-26T07:57:15.736Z,2.50
2019-05-26T08:02:18.301Z,4.15
2019-05-26T08:04:49.847Z,2.22
2019-05-26T08:07:23.130Z,2.67
2019-05-26T08:09:55.765Z,3.72
2019-05-26T08:12:30.561Z,3.10
2019-05-26T08:15:00.770Z,2.67
2019-05-26T08:17:32.392Z,2.90
2019-05-26T08:20:04.297Z,2.55
2019-05-26T08:22:36.343Z,2.47
2019-05-26T08:25:08.776Z,2.92
2019-05-26T08:30:11.866Z,2.50
2019-05-26T08:32:43.758Z,2.30
2019-05-26T08:37:46.532Z,2.52
2019-05-26T08:40:21.827Z,2.40
2019-05-26T08:42:53.786Z,2.40
2019-05-26T08:45:27.365Z,2.60
2019-05-26T08:47:59.299Z,2.50
2019-05-26T08:50:34.131Z,3.75
2019-05-26T08:53:04.757Z,2.45
2019-05-26T08:58:07.812Z,2.42
2019-05-26T09:00:39.590Z,2.40
2019-05-26T09:03:11.344Z,2.60
2019-05-26T09:05:43.349Z,2.45
2019-05-26T09:08:15.065Z,3.52
2019-05-26T09:10:47.310Z,5.45
2019-05-26T09:13:18.822Z,5.58
2019-05-26T09:15:50.433Z,4.85
2019-05-26T09:18:22.314Z,3.87
2019-05-26T09:20:53.912Z,6.45
2019-05-26T09:23:26.009Z,5.80
2019-05-26T09:25:57.767Z,5.05
2019-05-26T09:31:00.305Z,6.05
2019-05-26T09:33:31.831Z,4.90
2019-05-26T09:36:03.830Z,5.12
2019-05-26T09:38:35.602Z,8.53
2019-05-26T09:41:07.393Z,8.28
2019-05-26T09:43:39.265Z,7.20
2019-05-26T09:46:11.310Z,6.97
2019-05-26T09:48:43.310Z,4.78
2019-05-26T09:51:15.000Z,5.47
2019-05-26T09:54:00.884Z,7.33
2019-05-26T09:56:20.302Z,5.80
2019-05-26T09:58:52.265Z,6.03
2019-05-26T10:01:24.078Z,4.87
2019-05-26T10:03:55.929Z,8.20
2019-05-26T10:06:27.709Z,5.85
2019-05-26T10:11:30.311Z,2.98
2019-05-26T10:14:01.872Z,5.67
2019-05-26T10:16:33.769Z,6.25
2019-05-26T10:19:05.392Z,5.87
2019-05-26T10:21:37.296Z,5.97
2019-05-26T10:24:08.909Z,4.25
2019-05-26T10:26:41.266Z,5.60
2019-05-26T10:29:13.062Z,4.17
2019-05-26T10:31:44.759Z,3.77
2019-05-26T10:36:54.448Z,4.03
2019-05-26T10:39:34.853Z,5.55
2019-05-26T10:42:06.746Z,4.87
2019-05-26T10:44:38.341Z,5.22
2019-05-26T10:47:10.070Z,2.77
2019-05-26T10:49:42.555Z,4.40
2019-05-26T10:52:13.654Z,4.75
2019-05-26T10:57:16.267Z,4.75
2019-05-26T10:59:48.762Z,4.37
2019-05-26T11:04:51.754Z,7.55
2019-05-26T11:07:26.786Z,4.00
2019-05-26T11:09:57.068Z,4.42
2019-05-26T11:12:28.777Z,3.83
2019-05-26T11:15:00.335Z,5.37
2019-05-26T11:17:32.053Z,2.98
2019-05-26T11:20:03.715Z,4.12
2019-05-26T11:25:06.857Z,5.00
2019-05-26T11:27:38.787Z,4.85
2019-05-26T11:30:11.332Z,2.98
2019-05-26T11:32:43.390Z,4.87
2019-05-26T11:35:15.299Z,2.58
2019-05-26T11:37:46.856Z,6.03
2019-05-26T11:40:18.794Z,2.80
2019-05-26T11:42:50.579Z,3.08
2019-05-26T11:45:22.309Z,2.50
2019-05-26T11:47:54.302Z,3.22
2019-05-26T11:50:26.003Z,4.40
2019-05-26T11:52:57.763Z,5.37
2019-05-26T12:00:31.298Z,13.15
2019-05-26T12:03:02.876Z,12.37
2019-05-26T12:05:35.300Z,6.15
2019-05-26T12:08:06.904Z,8.05
2019-05-26T12:10:38.719Z,7.72
2019-05-26T12:15:41.537Z,5.47
2019-05-26T12:18:13.474Z,4.97
2019-05-26T12:20:45.585Z,6.67
2019-05-26T12:23:17.311Z,2.30
2019-05-26T12:25:49.303Z,2.92
2019-05-26T12:28:21.313Z,5.65
2019-05-26T12:30:52.910Z,5.80
2019-05-26T12:33:24.798Z,4.25
2019-05-26T12:35:56.519Z,5.28
2019-05-26T12:38:28.294Z,5.87
2019-05-26T12:40:59.974Z,6.20
2019-05-26T12:43:31.750Z,5.92
2019-05-26T12:46:03.589Z,4.00
2019-05-26T12:48:35.268Z,3.77
2019-05-26T12:51:06.862Z,2.33
2019-05-26T12:53:38.403Z,4.03
2019-05-26T12:56:10.091Z,6.10
2019-05-26T12:58:41.853Z,4.12
2019-05-26T13:01:13.432Z,4.87
2019-05-26T13:03:45.361Z,7.50
2019-05-26T13:06:17.754Z,2.67
2019-05-26T13:08:49.854Z,3.40
2019-05-26T13:11:22.879Z,3.90
2019-05-26T13:13:54.790Z,5.50
2019-05-26T13:16:26.741Z,2.67
2019-05-26T13:21:29.306Z,4.55
2019-05-26T13:24:01.300Z,2.10
2019-05-26T13:26:32.846Z,6.83
2019-05-26T13:29:04.769Z,2.67
2019-05-26T13:34:07.416Z,5.47
2019-05-26T13:36:39.022Z,4.45
2019-05-26T13:39:11.729Z,3.98
2019-05-26T13:44:14.305Z,2.35
2019-05-26T13:46:45.824Z,5.25
2019-05-26T13:49:18.321Z,3.58
2019-05-26T13:51:50.606Z,4.78
2019-05-26T13:54:22.369Z,4.10
2019-05-26T13:56:54.029Z,2.08
2019-05-26T13:59:25.855Z,2.77
2019-05-26T14:01:57.739Z,2.87
2019-05-26T14:07:00.253Z,2.52
2019-05-26T14:09:32.613Z,2.02
2019-05-26T14:12:04.386Z,2.87
2019-05-26T14:14:36.306Z,1.95
2019-05-26T14:17:08.293Z,3.42
2019-05-26T14:19:40.298Z,2.33
2019-05-26T14:22:11.818Z,2.72
2019-05-26T14:24:53.410Z,1.90
2019-05-26T14:27:17.522Z,3.33
2019-05-26T14:29:49.255Z,2.42
2019-05-26T14:32:20.857Z,3.08
2019-05-26T14:34:52.794Z,2.52
2019-05-26T14:37:24.749Z,2.02
2019-05-26T14:42:27.306Z,2.72
2019-05-26T14:44:58.994Z,1.90
2019-05-26T14:47:30.687Z,2.45
2019-05-26T14:52:33.662Z,5.12
2019-05-26T14:57:36.770Z,2.10
2019-05-26T15:02:39.958Z,3.08
2019-05-26T15:05:11.791Z,1.70
2019-05-26T15:07:43.422Z,2.50
2019-05-26T15:10:15.265Z,3.05
2019-05-26T15:12:47.311Z,2.90
2019-05-26T15:15:18.893Z,3.70
2019-05-26T15:17:50.818Z,1.80
2019-05-26T15:20:22.715Z,2.08
2019-05-26T15:25:25.307Z,2.55
2019-05-26T15:27:56.872Z,1.80
2019-05-26T15:30:28.735Z,2.80
2019-05-26T15:35:31.342Z,3.17
2019-05-26T15:38:03.285Z,2.52
2019-05-26T15:40:34.830Z,2.20
2019-05-26T15:43:06.593Z,6.72
2019-05-26T15:45:38.342Z,1.62
2019-05-26T15:48:10.374Z,2.52
2019-05-26T15:50:42.059Z,1.70
2019-05-26T15:53:13.752Z,2.70
2019-05-26T15:58:17.355Z,2.08
2019-05-26T16:00:49.795Z,2.00
2019-05-26T16:03:21.631Z,2.50
2019-05-26T16:05:54.069Z,2.77
2019-05-26T16:08:25.801Z,3.02
2019-05-26T16:10:57.622Z,2.35
2019-05-26T16:13:29.822Z,2.15
2019-05-26T16:16:01.618Z,2.12
2019-05-26T16:18:33.627Z,2.02
2019-05-26T16:21:05.353Z,2.65
2019-05-26T16:23:37.033Z,2.27
2019-05-26T16:26:08.784Z,2.90
2019-05-26T16:28:40.428Z,2.05
2019-05-26T16:31:12.620Z,1.80
2019-05-26T16:36:15.788Z,2.27
2019-05-26T16:38:47.390Z,3.17
2019-05-26T16:41:19.351Z,1.95
2019-05-26T16:43:51.312Z,1.60
2019-05-26T16:46:22.811Z,2.12
2019-05-26T16:48:54.975Z,1.92
2019-05-26T16:51:26.867Z,4.55
2019-05-26T16:53:58.389Z,4.00
2019-05-26T16:56:30.316Z,3.70
2019-05-26T16:59:02.306Z,1.80
2019-05-26T17:01:33.991Z,2.12
2019-05-26T17:04:05.755Z,1.92
2019-05-26T17:09:10.411Z,1.92
2019-05-26T17:11:42.067Z,2.35
2019-05-26T17:14:13.783Z,1.65
2019-05-26T17:16:45.628Z,2.20
2019-05-26T17:19:17.469Z,1.57
2019-05-26T17:21:49.410Z,1.70
2019-05-26T17:24:21.287Z,1.87
2019-05-26T17:26:52.841Z,2.77
2019-05-26T17:29:24.630Z,1.75
2019-05-26T17:31:56.338Z,1.72
2019-05-26T17:34:28.377Z,4.97
2019-05-26T17:37:00.255Z,2.35
2019-05-26T17:39:31.837Z,2.12
2019-05-26T17:42:03.649Z,3.58
2019-05-26T17:47:06.056Z,2.05
2019-05-26T17:49:37.786Z,2.40
2019-05-26T17:52:09.452Z,1.70
2019-05-26T17:54:41.301Z,3.25
2019-05-26T17:57:12.884Z,2.25
2019-05-26T17:59:44.722Z,2.02
2019-05-26T18:04:47.737Z,1.50
2019-05-26T18:09:50.406Z,1.60
2019-05-26T18:12:22.123Z,1.70
2019-05-26T18:14:53.758Z,2.05
2019-05-26T18:19:56.353Z,1.60
2019-05-26T18:22:28.295Z,1.70
2019-05-26T18:25:00.408Z,1.70
2019-05-26T18:27:32.318Z,1.65
2019-05-26T18:30:03.925Z,1.77
2019-05-26T18:32:35.457Z,1.50
2019-05-26T18:35:07.823Z,1.60
2019-05-26T18:37:39.778Z,2.65
2019-05-26T18:40:12.005Z,1.82
2019-05-26T18:42:43.803Z,1.50
2019-05-26T18:45:15.777Z,1.42
2019-05-26T18:50:20.434Z,1.62
2019-05-26T18:52:52.311Z,1.52
2019-05-26T18:55:23.886Z,2.40
2019-05-26T18:57:55.746Z,1.50
2019-05-26T19:02:59.874Z,1.50
2019-05-26T19:05:35.872Z,1.67
2019-05-26T19:08:04.808Z,2.17
2019-05-26T19:10:36.539Z,1.70
2019-05-26T19:13:10.659Z,1.60
2019-05-26T19:15:41.760Z,1.50
2019-05-26T19:20:46.040Z,1.57
2019-05-26T19:23:17.745Z,1.57
2019-05-26T19:28:21.266Z,1.65
2019-05-26T19:30:53.018Z,1.65
2019-05-26T19:33:24.898Z,1.72
2019-05-26T19:35:56.411Z,1.95
2019-05-26T19:38:28.313Z,2.90
2019-05-26T19:40:59.849Z,2.85
2019-05-26T19:43:31.569Z,1.72
2019-05-26T19:46:03.793Z,4.97
2019-05-26T19:48:37.276Z,3.90
2019-05-26T19:51:09.830Z,3.00
2019-05-26T19:53:41.738Z,2.02
2019-05-26T19:58:44.374Z,2.35
2019-05-26T20:01:16.054Z,3.20
2019-05-26T20:03:47.883Z,1.27
2019-05-26T20:06:19.363Z,2.75
2019-05-26T20:08:51.769Z,2.37
2019-05-26T20:13:54.323Z,1.70
2019-05-26T20:16:25.851Z,1.67
2019-05-26T20:18:57.598Z,1.60
2019-05-26T20:21:29.774Z,1.70
2019-05-26T20:26:32.310Z,2.60
2019-05-26T20:29:14.571Z,2.15
2019-05-26T20:32:07.491Z,1.70
2019-05-26T20:34:39.638Z,2.00
2019-05-26T20:37:12.037Z,2.40
2019-05-26T20:39:44.312Z,1.45
2019-05-26T20:42:15.849Z,4.15
2019-05-26T20:44:47.638Z,2.12
2019-05-26T20:47:19.782Z,1.72
2019-05-26T20:52:22.307Z,1.60
2019-05-26T20:54:54.330Z,1.80
2019-05-26T20:57:25.874Z,1.67
2019-05-26T20:59:57.809Z,2.00
2019-05-26T21:02:29.513Z,1.67
2019-05-26T21:05:01.763Z,1.70
2019-05-26T21:10:04.325Z,1.60
2019-05-26T21:12:36.003Z,1.80
2019-05-26T21:15:08.332Z,2.12
2019-05-26T21:17:39.882Z,1.95
2019-05-26T21:20:11.745Z,2.15
2019-05-26T21:25:14.664Z,2.00
2019-05-26T21:27:46.364Z,2.98
2019-05-26T21:30:18.503Z,2.35
2019-05-26T21:35:21.446Z,1.62
2019-05-26T21:37:53.086Z,1.65
2019-05-26T21:40:24.756Z,3.45
2019-05-26T21:45:27.440Z,1.57
2019-05-26T21:47:59.057Z,1.50
2019-05-26T21:50:30.794Z,2.05
2019-05-26T21:53:02.425Z,1.40
2019-05-26T21:55:34.045Z,2.00
2019-05-26T21:58:05.779Z,1.70
2019-05-26T22:03:13.360Z,1.65
2019-05-26T22:05:45.366Z,1.67
2019-05-26T22:08:17.071Z,2.00
2019-05-26T22:10:48.755Z,1.90
2019-05-26T22:13:21.110Z,1.70
2019-05-26T22:15:53.452Z,1.75
2019-05-26T22:18:25.766Z,1.42
2019-05-26T22:20:57.394Z,1.70
2019-05-26T22:23:29.048Z,1.67
2019-05-26T22:26:00.742Z,2.33
2019-05-26T22:28:32.362Z,1.70
2019-05-26T22:31:04.073Z,1.60
2019-05-26T22:33:35.847Z,1.50
2019-05-26T22:36:07.368Z,1.60
2019-05-26T22:38:39.050Z,1.65
2019-05-26T22:41:10.837Z,2.33
2019-05-26T22:43:42.640Z,1.75
2019-05-26T22:46:14.362Z,1.60
2019-05-26T22:48:46.051Z,1.77
2019-05-26T22:51:17.798Z,1.30
2019-05-26T22:53:49.575Z,1.45
2019-05-26T22:56:21.308Z,1.50
2019-05-26T22:58:53.376Z,1.70
2019-05-26T23:01:25.053Z,1.70
2019-05-26T23:03:57.313Z,1.32
2019-05-26T23:06:28.817Z,1.70
2019-05-26T23:09:00.510Z,1.50
2019-05-26T23:11:32.318Z,1.65
2019-05-26T23:14:03.822Z,1.47
2019-05-26T23:16:35.546Z,1.70
2019-05-26T23:19:18.705Z,1.60
2019-05-26T23:21:40.745Z,1.52
2019-05-26T23:24:12.379Z,1.60
2019-05-26T23:26:44.066Z,1.50
2019-05-26T23:29:15.746Z,1.55
2019-05-26T23:34:18.299Z,2.80
2019-05-26T23:36:49.878Z,1.75
2019-05-26T23:39:22.392Z,1.67
2019-05-26T23:41:54.067Z,1.52
2019-05-26T23:44:25.853Z,1.62
2019-05-26T23:46:57.592Z,1.55
2019-05-26T23:49:29.259Z,2.67
2019-05-26T23:52:00.819Z,1.55
2019-05-26T23:54:32.397Z,1.57
2019-05-26T23:57:04.312Z,1.47
2019-05-26T23:59:35.860Z,1.60
